sensor_id;sensor_type;location;lat;lon;timestamp;P1;durP1;ratioP1;P2;durP2;ratioP2
60344;SDS011;46188;52.324;8.032;2024-03-06T00:01:29;38.53;;;20.17;;
60344;SDS011;46188;52.324;8.032;2024-03-06T00:03:54;28.45;;;18.35;;
60344;SDS011;46188;52.324;8.032;2024-03-06T00:06:20;28.33;;;18.20;;
60344;SDS011;46188;52.324;8.032;2024-03-06T00:08:45;26.23;;;17.13;;
60344;SDS011;46188;52.324;8.032;2024-03-06T00:11:10;30.25;;;17.90;;
60344;SDS011;46188;52.324;8.032;2024-03-06T00:13:35;31.92;;;19.45;;
60344;SDS011;46188;52.324;8.032;2024-03-06T00:16:01;32.55;;;18.95;;
60344;SDS011;46188;52.324;8.032;2024-03-06T00:18:26;27.85;;;17.98;;
60344;SDS011;46188;52.324;8.032;2024-03-06T00:20:51;29.50;;;19.27;;
60344;SDS011;46188;52.324;8.032;2024-03-06T00:23:17;29.80;;;18.88;;
60344;SDS011;46188;52.324;8.032;2024-03-06T00:25:42;28.75;;;17.88;;
60344;SDS011;46188;52.324;8.032;2024-03-06T00:28:07;33.08;;;19.88;;
60344;SDS011;46188;52.324;8.032;2024-03-06T00:30:32;28.23;;;19.45;;
60344;SDS011;46188;52.324;8.032;2024-03-06T00:32:58;33.25;;;19.88;;
60344;SDS011;46188;52.324;8.032;2024-03-06T00:35:24;31.20;;;19.55;;
60344;SDS011;46188;52.324;8.032;2024-03-06T00:37:49;32.22;;;19.92;;
60344;SDS011;46188;52.324;8.032;2024-03-06T00:40:15;34.88;;;20.52;;
60344;SDS011;46188;52.324;8.032;2024-03-06T00:42:41;35.13;;;19.85;;
60344;SDS011;46188;52.324;8.032;2024-03-06T00:45:07;32.53;;;20.27;;
60344;SDS011;46188;52.324;8.032;2024-03-06T00:47:32;33.95;;;20.92;;
60344;SDS011;46188;52.324;8.032;2024-03-06T00:49:59;31.48;;;20.42;;
60344;SDS011;46188;52.324;8.032;2024-03-06T00:52:24;34.55;;;20.33;;
60344;SDS011;46188;52.324;8.032;2024-03-06T00:54:49;37.05;;;20.15;;
60344;SDS011;46188;52.324;8.032;2024-03-06T00:57:15;36.47;;;20.17;;
60344;SDS011;46188;52.324;8.032;2024-03-06T00:59:40;35.22;;;20.98;;
60344;SDS011;46188;52.324;8.032;2024-03-06T01:02:05;35.13;;;19.73;;
60344;SDS011;46188;52.324;8.032;2024-03-06T01:04:31;34.00;;;20.20;;
60344;SDS011;46188;52.324;8.032;2024-03-06T01:06:56;33.80;;;19.75;;
60344;SDS011;46188;52.324;8.032;2024-03-06T01:09:23;36.28;;;20.65;;
60344;SDS011;46188;52.324;8.032;2024-03-06T01:11:48;32.63;;;20.85;;
60344;SDS011;46188;52.324;8.032;2024-03-06T01:14:14;31.95;;;20.42;;
60344;SDS011;46188;52.324;8.032;2024-03-06T01:16:39;34.50;;;20.77;;
60344;SDS011;46188;52.324;8.032;2024-03-06T01:19:04;36.92;;;21.10;;
60344;SDS011;46188;52.324;8.032;2024-03-06T01:21:29;36.10;;;21.52;;
60344;SDS011;46188;52.324;8.032;2024-03-06T01:23:55;33.40;;;20.02;;
60344;SDS011;46188;52.324;8.032;2024-03-06T01:26:20;33.35;;;20.00;;
60344;SDS011;46188;52.324;8.032;2024-03-06T01:28:45;31.63;;;20.67;;
60344;SDS011;46188;52.324;8.032;2024-03-06T01:31:11;31.67;;;19.20;;
60344;SDS011;46188;52.324;8.032;2024-03-06T01:33:36;30.45;;;18.88;;
60344;SDS011;46188;52.324;8.032;2024-03-06T01:36:01;31.65;;;18.92;;
60344;SDS011;46188;52.324;8.032;2024-03-06T01:38:27;32.63;;;19.55;;
60344;SDS011;46188;52.324;8.032;2024-03-06T01:40:52;35.03;;;20.52;;
60344;SDS011;46188;52.324;8.032;2024-03-06T01:43:18;32.00;;;19.75;;
60344;SDS011;46188;52.324;8.032;2024-03-06T01:45:48;29.35;;;19.80;;
60344;SDS011;46188;52.324;8.032;2024-03-06T01:48:15;31.00;;;18.80;;
60344;SDS011;46188;52.324;8.032;2024-03-06T01:50:41;27.30;;;18.20;;
60344;SDS011;46188;52.324;8.032;2024-03-06T01:53:06;33.13;;;19.05;;
60344;SDS011;46188;52.324;8.032;2024-03-06T01:55:32;29.40;;;18.80;;
60344;SDS011;46188;52.324;8.032;2024-03-06T01:57:58;26.92;;;18.80;;
60344;SDS011;46188;52.324;8.032;2024-03-06T02:00:23;33.67;;;18.15;;
60344;SDS011;46188;52.324;8.032;2024-03-06T02:02:49;28.55;;;16.25;;
60344;SDS011;46188;52.324;8.032;2024-03-06T02:05:14;25.30;;;16.15;;
60344;SDS011;46188;52.324;8.032;2024-03-06T02:07:40;30.10;;;16.55;;
60344;SDS011;46188;52.324;8.032;2024-03-06T02:10:07;23.88;;;16.08;;
60344;SDS011;46188;52.324;8.032;2024-03-06T02:12:35;24.52;;;15.20;;
60344;SDS011;46188;52.324;8.032;2024-03-06T02:15:01;22.95;;;15.73;;
60344;SDS011;46188;52.324;8.032;2024-03-06T02:17:28;21.60;;;14.30;;
60344;SDS011;46188;52.324;8.032;2024-03-06T02:19:54;23.77;;;15.23;;
60344;SDS011;46188;52.324;8.032;2024-03-06T02:22:20;21.88;;;14.80;;
60344;SDS011;46188;52.324;8.032;2024-03-06T02:24:48;24.33;;;14.68;;
60344;SDS011;46188;52.324;8.032;2024-03-06T02:27:14;24.05;;;14.52;;
60344;SDS011;46188;52.324;8.032;2024-03-06T02:29:41;23.30;;;13.73;;
60344;SDS011;46188;52.324;8.032;2024-03-06T02:32:06;22.48;;;14.73;;
60344;SDS011;46188;52.324;8.032;2024-03-06T02:34:33;19.58;;;12.70;;
60344;SDS011;46188;52.324;8.032;2024-03-06T02:36:58;17.50;;;12.52;;
60344;SDS011;46188;52.324;8.032;2024-03-06T02:39:23;17.17;;;12.95;;
60344;SDS011;46188;52.324;8.032;2024-03-06T02:41:49;22.17;;;13.65;;
60344;SDS011;46188;52.324;8.032;2024-03-06T02:44:14;18.13;;;12.13;;
60344;SDS011;46188;52.324;8.032;2024-03-06T02:46:40;18.52;;;12.70;;
60344;SDS011;46188;52.324;8.032;2024-03-06T02:49:06;19.10;;;12.68;;
60344;SDS011;46188;52.324;8.032;2024-03-06T02:51:31;24.88;;;13.18;;
60344;SDS011;46188;52.324;8.032;2024-03-06T02:53:57;19.35;;;13.02;;
60344;SDS011;46188;52.324;8.032;2024-03-06T02:56:22;25.00;;;14.05;;
60344;SDS011;46188;52.324;8.032;2024-03-06T02:58:47;16.80;;;13.00;;
60344;SDS011;46188;52.324;8.032;2024-03-06T03:01:13;18.95;;;13.32;;
60344;SDS011;46188;52.324;8.032;2024-03-06T03:03:42;26.02;;;13.55;;
60344;SDS011;46188;52.324;8.032;2024-03-06T03:06:09;25.35;;;13.30;;
60344;SDS011;46188;52.324;8.032;2024-03-06T03:08:34;18.92;;;12.70;;
60344;SDS011;46188;52.324;8.032;2024-03-06T03:10:59;22.17;;;14.85;;
60344;SDS011;46188;52.324;8.032;2024-03-06T03:13:25;20.52;;;12.82;;
60344;SDS011;46188;52.324;8.032;2024-03-06T03:15:50;23.65;;;12.95;;
60344;SDS011;46188;52.324;8.032;2024-03-06T03:18:16;19.58;;;12.13;;
60344;SDS011;46188;52.324;8.032;2024-03-06T03:20:42;19.58;;;13.10;;
60344;SDS011;46188;52.324;8.032;2024-03-06T03:23:07;19.83;;;13.27;;
60344;SDS011;46188;52.324;8.032;2024-03-06T03:25:36;25.02;;;12.65;;
60344;SDS011;46188;52.324;8.032;2024-03-06T03:28:02;20.17;;;12.27;;
60344;SDS011;46188;52.324;8.032;2024-03-06T03:30:27;18.63;;;13.50;;
60344;SDS011;46188;52.324;8.032;2024-03-06T03:32:52;22.83;;;13.32;;
60344;SDS011;46188;52.324;8.032;2024-03-06T03:35:18;21.65;;;13.65;;
60344;SDS011;46188;52.324;8.032;2024-03-06T03:37:45;22.38;;;13.65;;
60344;SDS011;46188;52.324;8.032;2024-03-06T03:40:11;23.83;;;13.18;;
60344;SDS011;46188;52.324;8.032;2024-03-06T03:42:37;20.30;;;14.13;;
60344;SDS011;46188;52.324;8.032;2024-03-06T03:45:03;21.73;;;13.20;;
60344;SDS011;46188;52.324;8.032;2024-03-06T03:47:29;21.30;;;13.38;;
60344;SDS011;46188;52.324;8.032;2024-03-06T03:49:55;21.63;;;12.73;;
60344;SDS011;46188;52.324;8.032;2024-03-06T03:52:20;22.95;;;13.43;;
60344;SDS011;46188;52.324;8.032;2024-03-06T03:54:45;19.38;;;13.48;;
60344;SDS011;46188;52.324;8.032;2024-03-06T03:57:10;18.77;;;13.35;;
60344;SDS011;46188;52.324;8.032;2024-03-06T03:59:36;21.40;;;12.93;;
60344;SDS011;46188;52.324;8.032;2024-03-06T04:02:02;16.45;;;12.90;;
60344;SDS011;46188;52.324;8.032;2024-03-06T04:04:27;20.17;;;13.00;;
60344;SDS011;46188;52.324;8.032;2024-03-06T04:06:54;20.80;;;12.60;;
60344;SDS011;46188;52.324;8.032;2024-03-06T04:09:19;20.55;;;12.27;;
60344;SDS011;46188;52.324;8.032;2024-03-06T04:11:44;24.13;;;12.68;;
60344;SDS011;46188;52.324;8.032;2024-03-06T04:14:10;21.60;;;13.23;;
60344;SDS011;46188;52.324;8.032;2024-03-06T04:16:35;18.23;;;11.98;;
60344;SDS011;46188;52.324;8.032;2024-03-06T04:19:01;22.00;;;13.50;;
60344;SDS011;46188;52.324;8.032;2024-03-06T04:21:26;22.83;;;13.40;;
60344;SDS011;46188;52.324;8.032;2024-03-06T04:23:52;20.85;;;13.13;;
60344;SDS011;46188;52.324;8.032;2024-03-06T04:26:17;19.83;;;12.50;;
60344;SDS011;46188;52.324;8.032;2024-03-06T04:28:42;20.02;;;12.38;;
60344;SDS011;46188;52.324;8.032;2024-03-06T04:31:08;18.90;;;12.45;;
60344;SDS011;46188;52.324;8.032;2024-03-06T04:33:34;17.58;;;12.55;;
60344;SDS011;46188;52.324;8.032;2024-03-06T04:36:02;20.08;;;13.25;;
60344;SDS011;46188;52.324;8.032;2024-03-06T04:38:30;17.63;;;12.60;;
60344;SDS011;46188;52.324;8.032;2024-03-06T04:40:55;20.05;;;13.02;;
60344;SDS011;46188;52.324;8.032;2024-03-06T04:43:21;21.38;;;13.85;;
60344;SDS011;46188;52.324;8.032;2024-03-06T04:45:46;17.45;;;12.43;;
60344;SDS011;46188;52.324;8.032;2024-03-06T04:48:11;19.60;;;12.65;;
60344;SDS011;46188;52.324;8.032;2024-03-06T04:50:37;23.38;;;13.55;;
60344;SDS011;46188;52.324;8.032;2024-03-06T04:53:02;18.85;;;12.80;;
60344;SDS011;46188;52.324;8.032;2024-03-06T04:55:27;19.45;;;12.77;;
60344;SDS011;46188;52.324;8.032;2024-03-06T04:57:53;21.15;;;13.52;;
60344;SDS011;46188;52.324;8.032;2024-03-06T05:00:18;22.25;;;12.90;;
60344;SDS011;46188;52.324;8.032;2024-03-06T05:02:44;17.88;;;13.50;;
60344;SDS011;46188;52.324;8.032;2024-03-06T05:05:09;22.48;;;13.38;;
60344;SDS011;46188;52.324;8.032;2024-03-06T05:07:35;21.10;;;13.75;;
60344;SDS011;46188;52.324;8.032;2024-03-06T05:10:00;19.77;;;12.82;;
60344;SDS011;46188;52.324;8.032;2024-03-06T05:12:26;20.10;;;12.68;;
60344;SDS011;46188;52.324;8.032;2024-03-06T05:14:52;21.42;;;12.80;;
60344;SDS011;46188;52.324;8.032;2024-03-06T05:17:18;21.45;;;13.10;;
60344;SDS011;46188;52.324;8.032;2024-03-06T05:19:45;21.80;;;13.00;;
60344;SDS011;46188;52.324;8.032;2024-03-06T05:22:12;25.02;;;14.52;;
60344;SDS011;46188;52.324;8.032;2024-03-06T05:24:38;27.13;;;14.43;;
60344;SDS011;46188;52.324;8.032;2024-03-06T05:27:03;21.10;;;12.65;;
60344;SDS011;46188;52.324;8.032;2024-03-06T05:29:29;23.27;;;13.73;;
60344;SDS011;46188;52.324;8.032;2024-03-06T05:31:54;22.05;;;13.88;;
60344;SDS011;46188;52.324;8.032;2024-03-06T05:34:20;20.85;;;13.43;;
60344;SDS011;46188;52.324;8.032;2024-03-06T05:36:46;25.52;;;14.15;;
60344;SDS011;46188;52.324;8.032;2024-03-06T05:39:11;22.52;;;13.85;;
60344;SDS011;46188;52.324;8.032;2024-03-06T05:41:38;23.23;;;14.35;;
60344;SDS011;46188;52.324;8.032;2024-03-06T05:44:05;19.42;;;12.73;;
60344;SDS011;46188;52.324;8.032;2024-03-06T05:46:30;24.58;;;14.23;;
60344;SDS011;46188;52.324;8.032;2024-03-06T05:48:55;23.38;;;14.05;;
60344;SDS011;46188;52.324;8.032;2024-03-06T05:51:20;22.27;;;13.80;;
60344;SDS011;46188;52.324;8.032;2024-03-06T05:53:46;22.10;;;13.75;;
60344;SDS011;46188;52.324;8.032;2024-03-06T05:56:11;22.95;;;13.60;;
60344;SDS011;46188;52.324;8.032;2024-03-06T05:58:36;23.00;;;14.50;;
60344;SDS011;46188;52.324;8.032;2024-03-06T06:01:02;21.77;;;14.23;;
60344;SDS011;46188;52.324;8.032;2024-03-06T06:03:28;25.67;;;14.93;;
60344;SDS011;46188;52.324;8.032;2024-03-06T06:05:54;27.45;;;14.80;;
60344;SDS011;46188;52.324;8.032;2024-03-06T06:08:19;26.55;;;14.98;;
60344;SDS011;46188;52.324;8.032;2024-03-06T06:10:45;24.77;;;14.90;;
60344;SDS011;46188;52.324;8.032;2024-03-06T06:13:10;25.05;;;14.45;;
60344;SDS011;46188;52.324;8.032;2024-03-06T06:15:35;27.25;;;15.23;;
60344;SDS011;46188;52.324;8.032;2024-03-06T06:18:01;31.58;;;14.90;;
60344;SDS011;46188;52.324;8.032;2024-03-06T06:20:26;26.77;;;15.95;;
60344;SDS011;46188;52.324;8.032;2024-03-06T06:22:51;27.67;;;15.27;;
60344;SDS011;46188;52.324;8.032;2024-03-06T06:25:17;25.23;;;14.65;;
60344;SDS011;46188;52.324;8.032;2024-03-06T06:27:42;35.88;;;16.80;;
60344;SDS011;46188;52.324;8.032;2024-03-06T06:30:08;33.67;;;15.50;;
60344;SDS011;46188;52.324;8.032;2024-03-06T06:32:39;29.58;;;15.95;;
60344;SDS011;46188;52.324;8.032;2024-03-06T06:35:05;27.45;;;15.95;;
60344;SDS011;46188;52.324;8.032;2024-03-06T06:37:30;22.88;;;14.73;;
60344;SDS011;46188;52.324;8.032;2024-03-06T06:39:56;27.40;;;15.40;;
60344;SDS011;46188;52.324;8.032;2024-03-06T06:42:21;27.77;;;15.25;;
60344;SDS011;46188;52.324;8.032;2024-03-06T06:44:47;25.20;;;16.30;;
60344;SDS011;46188;52.324;8.032;2024-03-06T06:47:12;30.17;;;16.00;;
60344;SDS011;46188;52.324;8.032;2024-03-06T06:49:37;26.98;;;14.93;;
60344;SDS011;46188;52.324;8.032;2024-03-06T06:52:02;31.90;;;16.88;;
60344;SDS011;46188;52.324;8.032;2024-03-06T06:54:28;31.45;;;16.85;;
60344;SDS011;46188;52.324;8.032;2024-03-06T06:56:53;31.90;;;16.63;;
60344;SDS011;46188;52.324;8.032;2024-03-06T06:59:19;32.65;;;16.20;;
60344;SDS011;46188;52.324;8.032;2024-03-06T07:01:45;28.63;;;16.00;;
60344;SDS011;46188;52.324;8.032;2024-03-06T07:04:10;35.30;;;17.23;;
60344;SDS011;46188;52.324;8.032;2024-03-06T07:06:36;33.97;;;18.58;;
60344;SDS011;46188;52.324;8.032;2024-03-06T07:09:01;32.67;;;16.52;;
60344;SDS011;46188;52.324;8.032;2024-03-06T07:11:27;36.25;;;17.00;;
60344;SDS011;46188;52.324;8.032;2024-03-06T07:13:52;33.97;;;17.40;;
60344;SDS011;46188;52.324;8.032;2024-03-06T07:16:17;28.05;;;16.98;;
60344;SDS011;46188;52.324;8.032;2024-03-06T07:18:44;32.03;;;18.23;;
60344;SDS011;46188;52.324;8.032;2024-03-06T07:21:09;35.25;;;17.30;;
60344;SDS011;46188;52.324;8.032;2024-03-06T07:23:34;30.63;;;16.92;;
60344;SDS011;46188;52.324;8.032;2024-03-06T07:26:00;32.78;;;18.15;;
60344;SDS011;46188;52.324;8.032;2024-03-06T07:28:25;33.90;;;17.95;;
60344;SDS011;46188;52.324;8.032;2024-03-06T07:30:51;35.80;;;18.20;;
60344;SDS011;46188;52.324;8.032;2024-03-06T07:33:16;34.05;;;18.40;;
60344;SDS011;46188;52.324;8.032;2024-03-06T07:35:42;29.13;;;17.08;;
60344;SDS011;46188;52.324;8.032;2024-03-06T07:38:07;33.42;;;17.33;;
60344;SDS011;46188;52.324;8.032;2024-03-06T07:40:32;41.00;;;17.63;;
60344;SDS011;46188;52.324;8.032;2024-03-06T07:42:57;31.17;;;16.40;;
60344;SDS011;46188;52.324;8.032;2024-03-06T07:45:24;37.85;;;18.77;;
60344;SDS011;46188;52.324;8.032;2024-03-06T07:47:50;31.02;;;17.70;;
60344;SDS011;46188;52.324;8.032;2024-03-06T07:50:16;32.80;;;18.15;;
60344;SDS011;46188;52.324;8.032;2024-03-06T07:52:45;29.85;;;16.77;;
60344;SDS011;46188;52.324;8.032;2024-03-06T07:55:11;29.63;;;17.27;;
60344;SDS011;46188;52.324;8.032;2024-03-06T07:57:36;32.15;;;18.00;;
60344;SDS011;46188;52.324;8.032;2024-03-06T08:00:02;37.70;;;17.23;;
60344;SDS011;46188;52.324;8.032;2024-03-06T08:02:33;35.50;;;17.00;;
60344;SDS011;46188;52.324;8.032;2024-03-06T08:05:00;34.67;;;18.27;;
60344;SDS011;46188;52.324;8.032;2024-03-06T08:07:25;36.47;;;18.63;;
60344;SDS011;46188;52.324;8.032;2024-03-06T08:09:50;37.58;;;19.25;;
60344;SDS011;46188;52.324;8.032;2024-03-06T08:12:16;35.60;;;18.05;;
60344;SDS011;46188;52.324;8.032;2024-03-06T08:14:41;35.95;;;18.90;;
60344;SDS011;46188;52.324;8.032;2024-03-06T08:17:06;35.22;;;18.67;;
60344;SDS011;46188;52.324;8.032;2024-03-06T08:19:31;38.30;;;18.60;;
60344;SDS011;46188;52.324;8.032;2024-03-06T08:21:57;31.52;;;17.85;;
60344;SDS011;46188;52.324;8.032;2024-03-06T08:24:22;32.35;;;18.20;;
60344;SDS011;46188;52.324;8.032;2024-03-06T08:26:47;35.40;;;18.23;;
60344;SDS011;46188;52.324;8.032;2024-03-06T08:29:13;37.60;;;18.65;;
60344;SDS011;46188;52.324;8.032;2024-03-06T08:31:38;34.75;;;17.77;;
60344;SDS011;46188;52.324;8.032;2024-03-06T08:34:03;31.75;;;17.33;;
60344;SDS011;46188;52.324;8.032;2024-03-06T08:36:29;36.92;;;18.85;;
60344;SDS011;46188;52.324;8.032;2024-03-06T08:38:54;38.20;;;19.30;;
60344;SDS011;46188;52.324;8.032;2024-03-06T08:41:19;31.75;;;17.85;;
60344;SDS011;46188;52.324;8.032;2024-03-06T08:43:45;35.88;;;19.05;;
60344;SDS011;46188;52.324;8.032;2024-03-06T08:46:10;34.28;;;17.83;;
60344;SDS011;46188;52.324;8.032;2024-03-06T08:48:36;34.42;;;18.50;;
60344;SDS011;46188;52.324;8.032;2024-03-06T08:51:01;31.08;;;18.02;;
60344;SDS011;46188;52.324;8.032;2024-03-06T08:53:28;32.42;;;18.70;;
60344;SDS011;46188;52.324;8.032;2024-03-06T08:55:53;32.70;;;18.23;;
60344;SDS011;46188;52.324;8.032;2024-03-06T08:58:18;33.10;;;17.83;;
60344;SDS011;46188;52.324;8.032;2024-03-06T09:00:45;36.38;;;17.67;;
60344;SDS011;46188;52.324;8.032;2024-03-06T09:03:10;32.35;;;18.38;;
60344;SDS011;46188;52.324;8.032;2024-03-06T09:05:36;26.98;;;18.05;;
60344;SDS011;46188;52.324;8.032;2024-03-06T09:08:01;34.20;;;18.65;;
60344;SDS011;46188;52.324;8.032;2024-03-06T09:10:26;36.53;;;18.65;;
60344;SDS011;46188;52.324;8.032;2024-03-06T09:12:52;30.25;;;18.17;;
60344;SDS011;46188;52.324;8.032;2024-03-06T09:15:17;34.85;;;19.40;;
60344;SDS011;46188;52.324;8.032;2024-03-06T09:17:42;34.83;;;18.38;;
60344;SDS011;46188;52.324;8.032;2024-03-06T09:20:09;35.63;;;18.80;;
60344;SDS011;46188;52.324;8.032;2024-03-06T09:22:36;37.17;;;19.20;;
60344;SDS011;46188;52.324;8.032;2024-03-06T09:25:05;34.95;;;18.75;;
60344;SDS011;46188;52.324;8.032;2024-03-06T09:27:31;32.80;;;18.65;;
60344;SDS011;46188;52.324;8.032;2024-03-06T09:29:57;29.25;;;18.90;;
60344;SDS011;46188;52.324;8.032;2024-03-06T09:32:22;32.08;;;18.15;;
60344;SDS011;46188;52.324;8.032;2024-03-06T09:34:48;34.22;;;18.98;;
60344;SDS011;46188;52.324;8.032;2024-03-06T09:37:13;35.58;;;19.17;;
60344;SDS011;46188;52.324;8.032;2024-03-06T09:39:39;35.63;;;19.17;;
60344;SDS011;46188;52.324;8.032;2024-03-06T09:42:05;34.65;;;19.35;;
60344;SDS011;46188;52.324;8.032;2024-03-06T09:44:30;32.25;;;19.35;;
60344;SDS011;46188;52.324;8.032;2024-03-06T09:46:56;33.60;;;19.13;;
60344;SDS011;46188;52.324;8.032;2024-03-06T09:49:28;35.15;;;18.45;;
60344;SDS011;46188;52.324;8.032;2024-03-06T09:51:55;35.17;;;19.08;;
60344;SDS011;46188;52.324;8.032;2024-03-06T09:54:23;34.60;;;20.15;;
60344;SDS011;46188;52.324;8.032;2024-03-06T09:56:51;31.88;;;18.08;;
60344;SDS011;46188;52.324;8.032;2024-03-06T09:59:16;35.42;;;20.40;;
60344;SDS011;46188;52.324;8.032;2024-03-06T10:01:54;35.75;;;18.73;;
60344;SDS011;46188;52.324;8.032;2024-03-06T10:04:22;35.13;;;18.73;;
60344;SDS011;46188;52.324;8.032;2024-03-06T10:06:47;32.67;;;18.48;;
60344;SDS011;46188;52.324;8.032;2024-03-06T10:09:17;31.27;;;18.88;;
60344;SDS011;46188;52.324;8.032;2024-03-06T10:11:43;36.40;;;18.98;;
60344;SDS011;46188;52.324;8.032;2024-03-06T10:14:09;36.92;;;20.13;;
60344;SDS011;46188;52.324;8.032;2024-03-06T10:16:51;37.33;;;18.52;;
60344;SDS011;46188;52.324;8.032;2024-03-06T10:19:21;36.70;;;19.88;;
60344;SDS011;46188;52.324;8.032;2024-03-06T10:21:47;28.90;;;17.52;;
60344;SDS011;46188;52.324;8.032;2024-03-06T10:24:20;36.45;;;18.27;;
60344;SDS011;46188;52.324;8.032;2024-03-06T10:26:48;32.20;;;18.35;;
60344;SDS011;46188;52.324;8.032;2024-03-06T10:29:15;37.10;;;19.00;;
60344;SDS011;46188;52.324;8.032;2024-03-06T10:31:53;33.40;;;18.80;;
60344;SDS011;46188;52.324;8.032;2024-03-06T10:34:20;37.05;;;18.33;;
60344;SDS011;46188;52.324;8.032;2024-03-06T10:36:48;34.83;;;18.02;;
60344;SDS011;46188;52.324;8.032;2024-03-06T10:39:38;37.72;;;18.70;;
60344;SDS011;46188;52.324;8.032;2024-03-06T10:42:07;40.55;;;20.77;;
60344;SDS011;46188;52.324;8.032;2024-03-06T10:44:33;35.13;;;20.33;;
60344;SDS011;46188;52.324;8.032;2024-03-06T10:47:00;38.20;;;20.52;;
60344;SDS011;46188;52.324;8.032;2024-03-06T10:49:27;34.78;;;20.33;;
60344;SDS011;46188;52.324;8.032;2024-03-06T10:52:02;36.80;;;20.05;;
60344;SDS011;46188;52.324;8.032;2024-03-06T10:54:34;37.17;;;20.38;;
60344;SDS011;46188;52.324;8.032;2024-03-06T10:57:00;37.17;;;21.20;;
60344;SDS011;46188;52.324;8.032;2024-03-06T10:59:26;38.47;;;19.73;;
60344;SDS011;46188;52.324;8.032;2024-03-06T11:01:55;41.55;;;20.15;;
60344;SDS011;46188;52.324;8.032;2024-03-06T11:04:22;37.28;;;21.15;;
60344;SDS011;46188;52.324;8.032;2024-03-06T11:06:50;38.08;;;19.95;;
60344;SDS011;46188;52.324;8.032;2024-03-06T11:09:15;35.00;;;20.08;;
60344;SDS011;46188;52.324;8.032;2024-03-06T11:11:51;35.78;;;18.98;;
60344;SDS011;46188;52.324;8.032;2024-03-06T11:14:18;35.63;;;19.90;;
60344;SDS011;46188;52.324;8.032;2024-03-06T11:16:58;39.67;;;20.10;;
60344;SDS011;46188;52.324;8.032;2024-03-06T11:19:32;39.38;;;19.77;;
60344;SDS011;46188;52.324;8.032;2024-03-06T11:21:58;39.95;;;20.17;;
60344;SDS011;46188;52.324;8.032;2024-03-06T11:24:31;36.75;;;20.25;;
60344;SDS011;46188;52.324;8.032;2024-03-06T11:27:01;39.97;;;19.50;;
60344;SDS011;46188;52.324;8.032;2024-03-06T11:29:28;39.38;;;20.42;;
60344;SDS011;46188;52.324;8.032;2024-03-06T11:31:58;43.30;;;21.13;;
60344;SDS011;46188;52.324;8.032;2024-03-06T11:34:25;43.00;;;20.35;;
60344;SDS011;46188;52.324;8.032;2024-03-06T11:36:55;37.30;;;19.13;;
60344;SDS011;46188;52.324;8.032;2024-03-06T11:39:22;35.10;;;19.52;;
60344;SDS011;46188;52.324;8.032;2024-03-06T11:41:48;31.25;;;19.13;;
60344;SDS011;46188;52.324;8.032;2024-03-06T11:44:15;38.58;;;20.00;;
60344;SDS011;46188;52.324;8.032;2024-03-06T11:46:42;37.95;;;20.55;;
60344;SDS011;46188;52.324;8.032;2024-03-06T11:49:16;41.58;;;19.63;;
60344;SDS011;46188;52.324;8.032;2024-03-06T11:51:51;36.75;;;19.55;;
60344;SDS011;46188;52.324;8.032;2024-03-06T11:54:17;37.42;;;19.83;;
60344;SDS011;46188;52.324;8.032;2024-03-06T11:56:48;36.00;;;19.63;;
60344;SDS011;46188;52.324;8.032;2024-03-06T11:59:13;34.10;;;18.95;;
60344;SDS011;46188;52.324;8.032;2024-03-06T12:01:40;39.42;;;22.10;;
60344;SDS011;46188;52.324;8.032;2024-03-06T12:04:05;33.30;;;19.55;;
60344;SDS011;46188;52.324;8.032;2024-03-06T12:06:34;33.95;;;19.50;;
60344;SDS011;46188;52.324;8.032;2024-03-06T12:09:00;34.08;;;20.15;;
60344;SDS011;46188;52.324;8.032;2024-03-06T12:11:26;35.47;;;18.67;;
60344;SDS011;46188;52.324;8.032;2024-03-06T12:13:53;37.45;;;20.08;;
60344;SDS011;46188;52.324;8.032;2024-03-06T12:16:18;36.22;;;19.38;;
60344;SDS011;46188;52.324;8.032;2024-03-06T12:18:43;33.88;;;18.52;;
60344;SDS011;46188;52.324;8.032;2024-03-06T12:21:12;37.65;;;20.20;;
60344;SDS011;46188;52.324;8.032;2024-03-06T12:23:38;34.47;;;19.05;;
60344;SDS011;46188;52.324;8.032;2024-03-06T12:26:04;29.90;;;17.90;;
60344;SDS011;46188;52.324;8.032;2024-03-06T12:28:31;34.15;;;17.90;;
60344;SDS011;46188;52.324;8.032;2024-03-06T12:30:57;36.97;;;19.38;;
60344;SDS011;46188;52.324;8.032;2024-03-06T12:33:26;33.42;;;18.02;;
60344;SDS011;46188;52.324;8.032;2024-03-06T12:36:04;35.42;;;19.00;;
60344;SDS011;46188;52.324;8.032;2024-03-06T12:38:30;30.73;;;19.50;;
60344;SDS011;46188;52.324;8.032;2024-03-06T12:40:56;33.58;;;19.58;;
60344;SDS011;46188;52.324;8.032;2024-03-06T12:43:21;35.55;;;19.02;;
60344;SDS011;46188;52.324;8.032;2024-03-06T12:45:46;42.15;;;21.02;;
60344;SDS011;46188;52.324;8.032;2024-03-06T12:48:12;38.17;;;20.25;;
60344;SDS011;46188;52.324;8.032;2024-03-06T12:50:37;32.70;;;18.52;;
60344;SDS011;46188;52.324;8.032;2024-03-06T12:53:03;36.85;;;19.23;;
60344;SDS011;46188;52.324;8.032;2024-03-06T12:55:29;34.42;;;19.73;;
60344;SDS011;46188;52.324;8.032;2024-03-06T12:57:55;34.15;;;18.65;;
60344;SDS011;46188;52.324;8.032;2024-03-06T13:00:20;38.97;;;19.20;;
60344;SDS011;46188;52.324;8.032;2024-03-06T13:02:46;37.97;;;19.70;;
60344;SDS011;46188;52.324;8.032;2024-03-06T13:05:11;30.70;;;18.77;;
60344;SDS011;46188;52.324;8.032;2024-03-06T13:07:38;40.53;;;20.90;;
60344;SDS011;46188;52.324;8.032;2024-03-06T13:10:04;40.67;;;21.70;;
60344;SDS011;46188;52.324;8.032;2024-03-06T13:12:30;36.35;;;20.02;;
60344;SDS011;46188;52.324;8.032;2024-03-06T13:14:55;36.00;;;19.15;;
60344;SDS011;46188;52.324;8.032;2024-03-06T13:17:21;34.22;;;19.23;;
60344;SDS011;46188;52.324;8.032;2024-03-06T13:19:46;32.92;;;19.35;;
60344;SDS011;46188;52.324;8.032;2024-03-06T13:22:11;33.50;;;20.13;;
60344;SDS011;46188;52.324;8.032;2024-03-06T13:24:37;37.78;;;19.75;;
60344;SDS011;46188;52.324;8.032;2024-03-06T13:27:03;30.77;;;19.65;;
60344;SDS011;46188;52.324;8.032;2024-03-06T13:29:28;36.45;;;20.05;;
60344;SDS011;46188;52.324;8.032;2024-03-06T13:31:54;39.83;;;20.35;;
60344;SDS011;46188;52.324;8.032;2024-03-06T13:34:19;32.80;;;18.42;;
60344;SDS011;46188;52.324;8.032;2024-03-06T13:36:44;34.10;;;18.75;;
60344;SDS011;46188;52.324;8.032;2024-03-06T13:39:09;34.28;;;19.30;;
60344;SDS011;46188;52.324;8.032;2024-03-06T13:41:35;38.92;;;18.00;;
60344;SDS011;46188;52.324;8.032;2024-03-06T13:44:00;30.85;;;18.70;;
60344;SDS011;46188;52.324;8.032;2024-03-06T13:46:25;33.42;;;19.02;;
60344;SDS011;46188;52.324;8.032;2024-03-06T13:48:50;33.50;;;19.40;;
60344;SDS011;46188;52.324;8.032;2024-03-06T13:51:16;32.10;;;18.70;;
60344;SDS011;46188;52.324;8.032;2024-03-06T13:53:41;30.60;;;19.17;;
60344;SDS011;46188;52.324;8.032;2024-03-06T13:56:06;34.33;;;18.55;;
60344;SDS011;46188;52.324;8.032;2024-03-06T13:58:33;29.80;;;19.98;;
60344;SDS011;46188;52.324;8.032;2024-03-06T14:00:58;28.58;;;18.90;;
60344;SDS011;46188;52.324;8.032;2024-03-06T14:03:24;29.58;;;18.30;;
60344;SDS011;46188;52.324;8.032;2024-03-06T14:05:50;31.20;;;17.88;;
60344;SDS011;46188;52.324;8.032;2024-03-06T14:08:16;31.85;;;19.02;;
60344;SDS011;46188;52.324;8.032;2024-03-06T14:10:42;26.63;;;17.60;;
60344;SDS011;46188;52.324;8.032;2024-03-06T14:13:07;34.28;;;18.63;;
60344;SDS011;46188;52.324;8.032;2024-03-06T14:15:33;33.78;;;18.33;;